Time;durP1;ratioP1;P1;durP2;ratioP2;P2;SDS_P1;SDS_P2;PMS_P1;PMS_P2;Temp;Humidity;BMP_temperature;BMP_pressure;BME280_temperature;BME280_humidity;BME280_pressure;Samples;Min_cycle;Max_cycle;Signal;HPM_P1;HPM_P2
2021/06/07 00:00:51;;;;;;;26.47;19.50;;;15.70;99.90;;;;;;5069088;28;20648;-85
2021/06/07 00:03:18;;;;;;;19.93;17.23;;;15.70;99.90;;;;;;5071472;28;20625;-85
2021/06/07 00:05:44;;;;;;;23.33;19.37;;;15.70;99.90;;;;;;5072393;28;21143;-85
2021/06/07 00:08:12;;;;;;;24.90;19.37;;;15.70;99.90;;;;;;5072524;28;20614;-85
2021/06/07 00:10:39;;;;;;;24.90;18.83;;;15.70;99.90;;;;;;5072454;28;20676;-85
2021/06/07 00:13:06;;;;;;;25.67;19.80;;;15.60;99.90;;;;;;5072468;28;20656;-84
2021/06/07 00:15:34;;;;;;;24.37;19.13;;;15.70;99.90;;;;;;5071881;28;20724;-85
2021/06/07 00:18:02;;;;;;;20.33;17.33;;;15.60;99.90;;;;;;5072453;28;20611;-85
2021/06/07 00:20:31;;;;;;;27.30;19.30;;;15.60;99.90;;;;;;5072345;28;20618;-85
2021/06/07 00:22:58;;;;;;;27.03;20.10;;;15.70;99.90;;;;;;5072291;28;21013;-85
2021/06/07 00:25:26;;;;;;;23.80;19.20;;;15.60;99.90;;;;;;5070702;28;20629;-85
2021/06/07 00:27:53;;;;;;;23.73;18.40;;;15.60;99.90;;;;;;5072281;28;20697;-85
2021/06/07 00:30:20;;;;;;;22.23;18.53;;;15.60;99.90;;;;;;5071911;28;20680;-85
2021/06/07 00:32:46;;;;;;;29.27;19.33;;;15.60;99.90;;;;;;5072435;28;20609;-85
2021/06/07 00:35:17;;;;;;;26.33;18.27;;;15.60;99.90;;;;;;5071591;28;20610;-85
2021/06/07 00:37:43;;;;;;;26.83;20.67;;;15.50;99.90;;;;;;5072061;28;20605;-85
2021/06/07 00:40:11;;;;;;;26.93;21.37;;;15.60;99.90;;;;;;5071879;28;20952;-84
2021/06/07 00:42:38;;;;;;;27.67;19.30;;;15.50;99.90;;;;;;5072186;28;21005;-85
2021/06/07 00:45:07;;;;;;;26.10;18.83;;;15.50;99.90;;;;;;5071468;28;21502;-85
2021/06/07 00:47:34;;;;;;;27.13;18.80;;;15.50;99.90;;;;;;5071820;28;20657;-85
2021/06/07 00:50:00;;;;;;;26.73;18.77;;;15.50;99.90;;;;;;5071535;28;21591;-85
2021/06/07 00:52:27;;;;;;;23.80;18.60;;;15.50;99.90;;;;;;5071643;28;21161;-85
2021/06/07 00:54:53;;;;;;;24.87;19.20;;;15.60;99.90;;;;;;5071140;28;20686;-85
2021/06/07 00:57:20;;;;;;;26.87;19.40;;;15.50;99.90;;;;;;5071752;28;20623;-85
2021/06/07 00:59:47;;;;;;;26.10;18.67;;;15.50;99.90;;;;;;5071308;28;20614;-85
2021/06/07 01:02:14;;;;;;;24.77;18.60;;;15.50;99.90;;;;;;5070755;28;21357;-85
2021/06/07 01:04:42;;;;;;;26.77;18.80;;;15.50;99.90;;;;;;5071166;28;20778;-85
2021/06/07 01:07:09;;;;;;;23.63;18.20;;;15.50;99.90;;;;;;5071623;28;20609;-85
2021/06/07 01:09:37;;;;;;;24.20;19.63;;;15.50;99.90;;;;;;5071573;28;21241;-85
2021/06/07 01:12:06;;;;;;;30.80;18.93;;;15.50;99.90;;;;;;5065474;28;20654;-85
2021/06/07 01:14:34;;;;;;;21.40;17.80;;;15.50;99.90;;;;;;5071171;28;20701;-85
2021/06/07 01:17:03;;;;;;;25.90;18.50;;;15.40;99.90;;;;;;5071301;28;21250;-85
2021/06/07 01:19:36;;;;;;;27.10;19.17;;;15.40;99.90;;;;;;5070978;28;20628;-85
2021/06/07 01:22:11;;;;;;;26.73;17.37;;;15.40;99.90;;;;;;5051079;28;21182;-85
2021/06/07 01:24:46;;;;;;;26.93;18.37;;;15.40;99.90;;;;;;5050767;28;20633;-85
2021/06/07 01:27:14;;;;;;;24.17;18.57;;;15.40;99.90;;;;;;5050046;28;20629;-85
2021/06/07 01:29:41;;;;;;;26.73;18.07;;;15.40;99.90;;;;;;5056142;28;20623;-85
2021/06/07 01:32:10;;;;;;;20.53;17.37;;;15.30;99.90;;;;;;5070635;28;20643;-86
2021/06/07 01:34:37;;;;;;;24.90;17.17;;;15.30;99.90;;;;;;5070312;28;20616;-85
2021/06/07 01:37:05;;;;;;;22.60;18.17;;;15.30;99.90;;;;;;5070865;28;20610;-85
2021/06/07 01:39:33;;;;;;;27.60;18.60;;;15.40;99.90;;;;;;5071036;28;20652;-85
2021/06/07 01:42:01;;;;;;;19.37;17.20;;;15.40;99.90;;;;;;5070641;28;20620;-86
2021/06/07 01:44:28;;;;;;;24.43;17.13;;;15.30;99.90;;;;;;5070564;28;20601;-85
2021/06/07 01:46:56;;;;;;;26.20;19.57;;;15.30;99.90;;;;;;5070488;28;20613;-85
2021/06/07 01:49:24;;;;;;;29.90;19.10;;;15.30;99.90;;;;;;5071010;28;20624;-85
2021/06/07 01:51:56;;;;;;;21.73;17.13;;;15.30;99.90;;;;;;5070895;28;20653;-85
2021/06/07 01:54:25;;;;;;;24.23;17.30;;;15.40;99.90;;;;;;5069961;28;20635;-85
2021/06/07 01:56:54;;;;;;;25.40;17.90;;;15.40;99.90;;;;;;5070539;28;20699;-85
2021/06/07 01:59:21;;;;;;;25.67;17.87;;;15.40;99.90;;;;;;5070616;28;20633;-85
2021/06/07 02:01:48;;;;;;;25.53;18.40;;;15.30;99.90;;;;;;5070704;28;20597;-85
2021/06/07 02:04:16;;;;;;;29.37;18.40;;;15.30;99.90;;;;;;5067895;28;20613;-85
2021/06/07 02:06:43;;;;;;;27.00;19.67;;;15.30;99.90;;;;;;5064608;28;20738;-85
2021/06/07 02:09:11;;;;;;;26.07;18.10;;;15.30;99.90;;;;;;5067223;28;21208;-85
2021/06/07 02:11:41;;;;;;;23.83;17.33;;;15.30;99.90;;;;;;5070080;28;21025;-85
2021/06/07 02:14:11;;;;;;;22.80;16.77;;;15.30;99.90;;;;;;5070085;28;20617;-85
2021/06/07 02:16:40;;;;;;;24.77;19.13;;;15.40;99.90;;;;;;5069817;28;20683;-86
2021/06/07 02:19:08;;;;;;;30.07;18.70;;;15.40;99.90;;;;;;5070404;28;20629;-85
2021/06/07 02:21:37;;;;;;;30.37;18.37;;;15.40;99.90;;;;;;5064822;28;20634;-85
2021/06/07 02:24:06;;;;;;;28.10;19.97;;;15.30;99.90;;;;;;5070012;28;20620;-86
2021/06/07 02:26:38;;;;;;;27.30;18.57;;;15.20;99.90;;;;;;5069215;28;21017;-85
2021/06/07 02:29:07;;;;;;;23.67;17.30;;;15.20;99.90;;;;;;5070209;28;20653;-85
2021/06/07 02:31:39;;;;;;;26.13;18.73;;;15.20;99.90;;;;;;5070376;28;20647;-85
2021/06/07 02:34:08;;;;;;;30.17;19.80;;;15.30;99.90;;;;;;5070163;28;21177;-85
2021/06/07 02:36:38;;;;;;;24.93;18.20;;;15.30;99.90;;;;;;5069789;28;20628;-85
2021/06/07 02:39:06;;;;;;;28.83;18.70;;;15.40;99.90;;;;;;5069582;28;20610;-85
2021/06/07 02:41:33;;;;;;;25.73;17.33;;;15.30;99.90;;;;;;5070276;28;20675;-85
2021/06/07 02:44:00;;;;;;;29.57;19.47;;;15.30;99.90;;;;;;5069787;28;20618;-86
2021/06/07 02:46:26;;;;;;;27.70;19.23;;;15.20;99.90;;;;;;5070020;28;20620;-85
2021/06/07 02:48:54;;;;;;;25.93;17.33;;;15.20;99.90;;;;;;5070389;28;20609;-86
2021/06/07 02:51:20;;;;;;;27.83;19.23;;;15.20;99.90;;;;;;5069707;28;20637;-86
2021/06/07 02:53:49;;;;;;;25.27;18.67;;;15.20;99.90;;;;;;5070177;28;21123;-85
2021/06/07 02:56:16;;;;;;;27.00;19.43;;;15.20;99.90;;;;;;5069767;28;21013;-85
2021/06/07 02:58:42;;;;;;;30.63;18.77;;;15.20;99.90;;;;;;5069964;28;20605;-85
2021/06/07 03:01:11;;;;;;;27.07;18.90;;;15.20;99.90;;;;;;5070023;28;20656;-85
2021/06/07 03:03:38;;;;;;;27.83;18.80;;;15.20;99.90;;;;;;5070103;28;20598;-85
2021/06/07 03:06:06;;;;;;;32.20;18.90;;;15.20;99.90;;;;;;5069641;28;20612;-86
2021/06/07 03:08:35;;;;;;;30.90;19.83;;;15.30;99.90;;;;;;5070279;28;20620;-86
2021/06/07 03:11:05;;;;;;;29.37;19.30;;;15.20;99.90;;;;;;5069913;28;21209;-85
2021/06/07 03:13:31;;;;;;;32.47;20.10;;;15.20;99.90;;;;;;5070126;28;20605;-86
2021/06/07 03:15:59;;;;;;;35.40;20.60;;;15.20;99.90;;;;;;5069421;28;20727;-85
2021/06/07 03:18:25;;;;;;;32.10;21.00;;;15.20;99.90;;;;;;5069561;28;20613;-86
2021/06/07 03:20:53;;;;;;;34.23;20.73;;;15.20;99.90;;;;;;5069987;28;20598;-85
2021/06/07 03:23:24;;;;;;;29.87;19.63;;;15.10;99.90;;;;;;5070082;28;20637;-86
2021/06/07 03:25:52;;;;;;;37.23;20.67;;;15.10;99.90;;;;;;5073284;28;20620;-85
2021/06/07 03:28:20;;;;;;;31.47;20.23;;;15.20;99.90;;;;;;5073261;28;20942;-85
2021/06/07 03:30:48;;;;;;;35.27;20.33;;;15.20;99.90;;;;;;5070283;28;20649;-86
2021/06/07 03:33:15;;;;;;;30.93;19.20;;;15.10;99.90;;;;;;5070471;28;20617;-85
2021/06/07 03:35:43;;;;;;;41.10;23.40;;;15.10;99.90;;;;;;5072847;28;20621;-85
2021/06/07 03:38:13;;;;;;;31.10;22.10;;;15.10;99.90;;;;;;5073224;28;20649;-85
2021/06/07 03:40:43;;;;;;;31.03;19.50;;;15.10;99.90;;;;;;5073133;28;20617;-84
2021/06/07 03:43:11;;;;;;;33.03;20.93;;;15.10;99.90;;;;;;5073348;28;20723;-85
2021/06/07 03:45:37;;;;;;;31.37;20.50;;;15.10;99.90;;;;;;5072122;28;20709;-85
2021/06/07 03:48:05;;;;;;;31.77;21.17;;;15.10;99.90;;;;;;5073221;28;20667;-85
2021/06/07 03:50:33;;;;;;;30.33;19.53;;;15.10;99.90;;;;;;5073203;28;20638;-85
2021/06/07 03:53:00;;;;;;;35.47;21.20;;;15.10;99.90;;;;;;5073244;28;20616;-86
2021/06/07 03:55:28;;;;;;;34.70;21.77;;;15.10;99.90;;;;;;5072572;28;20621;-86
2021/06/07 03:57:57;;;;;;;31.07;21.30;;;15.10;99.90;;;;;;5072521;28;21189;-86
2021/06/07 04:00:27;;;;;;;32.13;21.00;;;15.10;99.90;;;;;;5072968;28;20656;-85
2021/06/07 04:02:56;;;;;;;31.30;19.53;;;15.10;99.90;;;;;;5073072;28;21012;-85
2021/06/07 04:05:22;;;;;;;35.47;21.50;;;15.10;99.90;;;;;;5072313;28;20661;-85
2021/06/07 04:07:49;;;;;;;30.17;20.87;;;15.10;99.90;;;;;;5072708;28;21186;-85
2021/06/07 04:10:18;;;;;;;34.50;20.80;;;15.10;99.90;;;;;;5073165;28;21138;-85
2021/06/07 04:12:46;;;;;;;34.30;18.90;;;15.00;99.90;;;;;;5072465;28;20610;-84
2021/06/07 04:15:16;;;;;;;28.60;19.07;;;15.00;99.90;;;;;;5072118;28;20629;-84
2021/06/07 04:17:43;;;;;;;34.50;20.43;;;15.10;99.90;;;;;;5072179;28;20663;-84
2021/06/07 04:20:12;;;;;;;27.13;17.63;;;15.10;99.90;;;;;;5072475;28;20648;-84
2021/06/07 04:22:38;;;;;;;28.50;18.60;;;15.10;99.90;;;;;;5068422;28;20667;-84
2021/06/07 04:25:06;;;;;;;31.70;20.30;;;15.10;99.90;;;;;;5071532;28;20633;-84
2021/06/07 04:27:33;;;;;;;37.93;21.20;;;15.10;99.90;;;;;;5072233;28;21020;-85
2021/06/07 04:29:59;;;;;;;29.67;19.80;;;15.00;99.90;;;;;;5072550;28;20625;-84
2021/06/07 04:32:27;;;;;;;27.90;19.60;;;15.00;99.90;;;;;;5067897;28;20714;-84
2021/06/07 04:34:53;;;;;;;28.90;19.60;;;15.00;99.90;;;;;;5070845;28;20704;-85
2021/06/07 04:37:20;;;;;;;30.70;20.50;;;15.00;99.90;;;;;;5072082;28;20605;-84
2021/06/07 04:39:46;;;;;;;28.10;18.93;;;15.00;99.90;;;;;;5070171;28;20640;-85
2021/06/07 04:42:13;;;;;;;32.83;19.67;;;15.10;99.90;;;;;;5069942;28;21193;-85
2021/06/07 04:44:39;;;;;;;28.90;18.43;;;15.10;99.90;;;;;;5071346;28;20629;-85
2021/06/07 04:47:06;;;;;;;33.13;20.00;;;15.10;99.90;;;;;;5070566;28;20625;-84
2021/06/07 04:49:34;;;;;;;31.23;18.90;;;15.10;99.90;;;;;;5066549;28;20646;-85
2021/06/07 04:52:00;;;;;;;31.13;18.73;;;15.00;99.90;;;;;;5071219;28;20658;-87
2021/06/07 04:54:28;;;;;;;27.40;17.23;;;15.00;99.90;;;;;;5070152;28;20699;-86
2021/06/07 04:56:55;;;;;;;27.93;18.93;;;15.10;99.90;;;;;;5070222;28;21026;-87
2021/06/07 04:59:24;;;;;;;26.30;16.67;;;15.30;99.90;;;;;;5070939;28;20602;-86
2021/06/07 05:01:51;;;;;;;27.67;16.90;;;15.10;99.90;;;;;;5070893;28;20656;-87
2021/06/07 05:04:17;;;;;;;23.70;15.33;;;15.30;99.90;;;;;;5070412;28;20609;-86
2021/06/07 05:06:45;;;;;;;23.63;16.10;;;15.30;99.90;;;;;;5070840;28;20633;-86
2021/06/07 05:09:11;;;;;;;23.93;17.57;;;15.30;99.90;;;;;;5071673;28;20984;-86
2021/06/07 05:11:39;;;;;;;22.60;15.27;;;15.30;99.90;;;;;;5071298;28;20711;-86
2021/06/07 05:14:05;;;;;;;19.00;14.63;;;15.40;99.90;;;;;;5071121;28;20624;-87
2021/06/07 05:16:32;;;;;;;19.60;13.70;;;15.40;99.90;;;;;;5070724;28;20625;-86
2021/06/07 05:18:58;;;;;;;19.90;13.40;;;15.30;99.90;;;;;;5071130;28;20617;-86
2021/06/07 05:21:24;;;;;;;21.87;12.53;;;15.40;99.90;;;;;;5069652;28;20630;-86
2021/06/07 05:23:53;;;;;;;18.13;13.70;;;15.40;99.90;;;;;;5065361;28;20756;-86
2021/06/07 05:26:20;;;;;;;18.67;12.93;;;15.30;99.90;;;;;;5065408;28;20692;-86
2021/06/07 05:28:46;;;;;;;20.77;13.53;;;15.50;99.90;;;;;;5058689;28;20714;-86
2021/06/07 05:31:13;;;;;;;22.10;14.47;;;15.30;99.90;;;;;;5056052;28;20715;-87
2021/06/07 05:33:39;;;;;;;18.40;14.13;;;15.30;99.90;;;;;;5070272;28;20598;-87
2021/06/07 05:36:07;;;;;;;24.47;14.87;;;15.30;99.90;;;;;;5067752;28;20658;-87
2021/06/07 05:38:33;;;;;;;27.93;15.73;;;15.20;99.90;;;;;;5070926;28;20625;-87
2021/06/07 05:41:03;;;;;;;20.23;14.90;;;15.20;99.90;;;;;;5071059;28;20621;-86
2021/06/07 05:43:30;;;;;;;26.20;15.00;;;15.10;99.90;;;;;;5071282;28;20640;-87
2021/06/07 05:45:56;;;;;;;24.47;15.23;;;15.10;99.90;;;;;;5069795;28;21039;-86
2021/06/07 05:48:23;;;;;;;24.03;14.33;;;15.10;99.90;;;;;;5065440;28;20679;-86
2021/06/07 05:50:49;;;;;;;23.27;16.50;;;15.10;99.90;;;;;;5067470;28;20661;-87
2021/06/07 05:53:18;;;;;;;21.40;15.00;;;15.00;99.90;;;;;;5069553;28;20613;-87
2021/06/07 05:55:45;;;;;;;20.17;14.30;;;15.10;99.90;;;;;;5070189;28;20628;-86
2021/06/07 05:58:15;;;;;;;20.97;14.97;;;15.10;99.90;;;;;;5065248;28;20725;-86
2021/06/07 06:00:44;;;;;;;21.13;15.23;;;15.20;99.90;;;;;;5066201;28;21054;-87
2021/06/07 06:03:11;;;;;;;25.93;16.87;;;15.20;99.90;;;;;;5054689;28;21015;-86
2021/06/07 06:05:39;;;;;;;23.53;15.90;;;15.20;99.90;;;;;;5049402;28;20638;-86
2021/06/07 06:08:07;;;;;;;25.30;15.67;;;15.30;99.90;;;;;;5048680;28;20667;-85
2021/06/07 06:10:34;;;;;;;31.53;16.80;;;15.20;99.90;;;;;;5049135;28;20602;-86
2021/06/07 06:13:01;;;;;;;25.63;15.60;;;15.10;99.90;;;;;;5049227;28;20617;-86
2021/06/07 06:15:29;;;;;;;26.10;13.43;;;15.10;99.90;;;;;;5048805;28;21159;-85
2021/06/07 06:17:56;;;;;;;22.93;14.83;;;15.20;99.90;;;;;;5056158;28;20614;-86
2021/06/07 06:20:25;;;;;;;23.27;15.00;;;15.20;99.90;;;;;;5050673;28;20621;-87
2021/06/07 06:22:52;;;;;;;27.60;14.63;;;15.20;99.90;;;;;;5050878;28;21190;-87
2021/06/07 06:25:19;;;;;;;21.87;14.60;;;15.20;99.90;;;;;;5050178;28;20952;-86
2021/06/07 06:27:45;;;;;;;22.77;15.20;;;15.30;99.90;;;;;;5050535;28;20622;-86
2021/06/07 06:30:16;;;;;;;24.63;14.40;;;15.30;99.90;;;;;;5051425;28;20673;-86
2021/06/07 06:32:46;;;;;;;17.93;13.27;;;15.40;99.90;;;;;;5065113;28;20670;-86
2021/06/07 06:35:14;;;;;;;22.57;14.20;;;15.30;99.90;;;;;;5050408;28;20606;-86
2021/06/07 06:37:43;;;;;;;21.10;14.53;;;15.30;99.90;;;;;;5061888;28;20629;-87
2021/06/07 06:40:14;;;;;;;18.37;13.20;;;15.40;99.90;;;;;;5057053;28;20625;-86
2021/06/07 06:42:41;;;;;;;20.13;14.10;;;15.50;99.90;;;;;;5050416;28;20629;-87
2021/06/07 06:45:09;;;;;;;22.53;13.73;;;15.60;99.90;;;;;;5049483;28;20644;-87
2021/06/07 06:47:36;;;;;;;21.93;15.17;;;15.60;99.90;;;;;;5058554;28;21167;-87
2021/06/07 06:50:07;;;;;;;21.67;13.40;;;15.50;99.90;;;;;;5071194;28;20975;-87
2021/06/07 06:52:34;;;;;;;20.00;14.50;;;15.50;99.90;;;;;;5070786;28;20653;-87
2021/06/07 06:55:00;;;;;;;29.00;13.60;;;15.40;99.90;;;;;;5070491;28;20950;-86
2021/06/07 06:57:26;;;;;;;19.97;13.33;;;15.40;99.90;;;;;;5069915;28;20622;-87
2021/06/07 06:59:53;;;;;;;21.70;13.60;;;15.40;99.90;;;;;;5073373;28;20950;-86
2021/06/07 07:02:20;;;;;;;23.50;13.37;;;15.30;99.90;;;;;;5074143;28;20651;-87
2021/06/07 07:04:47;;;;;;;21.30;13.00;;;15.40;99.90;;;;;;5074284;28;20672;-87
2021/06/07 07:07:15;;;;;;;25.23;15.20;;;15.40;99.90;;;;;;5073894;28;20631;-87
2021/06/07 07:09:43;;;;;;;19.00;12.53;;;15.50;99.90;;;;;;5074474;28;20649;-86
2021/06/07 07:12:10;;;;;;;27.70;14.67;;;15.50;99.90;;;;;;5070554;28;20648;-87
2021/06/07 07:14:37;;;;;;;20.03;14.10;;;15.50;99.90;;;;;;5075035;28;20615;-86
2021/06/07 07:17:04;;;;;;;16.00;11.70;;;15.50;99.90;;;;;;5069851;28;20655;-86
2021/06/07 07:19:30;;;;;;;18.47;14.07;;;15.60;99.90;;;;;;5054695;28;20629;-87
2021/06/07 07:21:57;;;;;;;16.50;12.43;;;15.60;99.90;;;;;;5056216;28;20614;-86
2021/06/07 07:24:25;;;;;;;17.87;12.53;;;15.60;99.90;;;;;;5055732;28;21147;-86
2021/06/07 07:26:51;;;;;;;19.87;13.07;;;15.60;99.90;;;;;;5056790;28;20650;-86
2021/06/07 07:29:18;;;;;;;21.03;13.37;;;15.70;99.90;;;;;;5056682;28;20639;-86
2021/06/07 07:31:44;;;;;;;17.10;13.90;;;15.60;99.90;;;;;;5069921;28;20661;-87
2021/06/07 07:34:11;;;;;;;13.23;10.83;;;15.70;99.90;;;;;;5074538;28;20619;-86
2021/06/07 07:36:37;;;;;;;16.03;11.77;;;15.70;99.90;;;;;;5070281;28;20650;-87
2021/06/07 07:39:04;;;;;;;15.07;11.10;;;15.80;99.90;;;;;;5054676;28;20633;-86
2021/06/07 07:41:33;;;;;;;16.07;10.80;;;15.90;99.90;;;;;;5056798;28;20616;-86
2021/06/07 07:44:00;;;;;;;14.27;10.33;;;15.80;99.90;;;;;;5054317;28;20621;-87
2021/06/07 07:46:26;;;;;;;13.83;9.30;;;15.80;99.90;;;;;;5053239;28;21118;-85
2021/06/07 07:48:53;;;;;;;16.00;11.50;;;15.90;99.90;;;;;;5072506;28;20614;-87
2021/06/07 07:51:19;;;;;;;12.67;10.93;;;16.00;99.90;;;;;;5075647;28;21060;-87
2021/06/07 07:53:46;;;;;;;14.60;11.73;;;16.00;99.90;;;;;;5076965;28;20614;-86
2021/06/07 07:56:12;;;;;;;13.57;10.20;;;16.00;99.90;;;;;;5076290;28;20612;-86
2021/06/07 07:58:40;;;;;;;13.73;10.90;;;15.90;99.90;;;;;;5076543;28;20637;-86
2021/06/07 08:01:07;;;;;;;11.90;9.80;;;15.80;99.90;;;;;;5077238;28;20625;-86
2021/06/07 08:03:33;;;;;;;13.37;10.17;;;15.70;99.90;;;;;;5076540;28;20609;-86
2021/06/07 08:06:00;;;;;;;13.00;9.70;;;15.80;99.90;;;;;;5075193;28;20629;-85
2021/06/07 08:08:27;;;;;;;11.83;8.87;;;15.70;99.90;;;;;;5065656;28;20627;-86
2021/06/07 08:10:57;;;;;;;12.70;10.50;;;15.70;99.90;;;;;;5075958;28;20626;-86
2021/06/07 08:13:24;;;;;;;11.33;9.73;;;15.70;99.90;;;;;;5074995;28;20699;-86
2021/06/07 08:15:53;;;;;;;18.23;10.37;;;15.70;99.90;;;;;;5073842;28;20625;-86
2021/06/07 08:18:19;;;;;;;17.10;10.53;;;15.90;99.90;;;;;;5058124;28;20619;-86
2021/06/07 08:20:46;;;;;;;13.60;10.43;;;16.00;99.90;;;;;;5051883;28;21258;-86
2021/06/07 08:23:12;;;;;;;12.13;10.70;;;15.80;99.90;;;;;;5054238;28;20625;-85
2021/06/07 08:25:39;;;;;;;14.03;10.40;;;15.90;99.90;;;;;;5056051;28;20623;-85
2021/06/07 08:28:06;;;;;;;14.87;11.40;;;16.00;99.90;;;;;;5054722;28;20709;-86
2021/06/07 08:30:34;;;;;;;14.20;10.30;;;16.00;99.90;;;;;;5061990;28;20636;-87
2021/06/07 08:33:02;;;;;;;13.60;10.13;;;15.90;99.90;;;;;;5075237;28;20677;-86
2021/06/07 08:35:29;;;;;;;12.30;9.90;;;15.90;99.90;;;;;;5074972;28;20922;-85
2021/06/07 08:37:56;;;;;;;13.93;10.00;;;15.80;99.90;;;;;;5057707;28;20620;-85
2021/06/07 08:40:23;;;;;;;12.60;10.70;;;15.90;99.90;;;;;;5054688;28;20620;-85
2021/06/07 08:42:49;;;;;;;13.07;9.60;;;15.90;99.90;;;;;;5054697;28;20632;-86
2021/06/07 08:45:18;;;;;;;12.10;10.43;;;16.10;99.90;;;;;;5053844;28;20608;-87
2021/06/07 08:47:46;;;;;;;8.77;7.77;;;16.20;99.90;;;;;;5072781;28;21196;-87
2021/06/07 08:50:18;;;;;;;8.67;7.77;;;16.20;99.90;;;;;;5075367;28;20626;-87
2021/06/07 08:52:45;;;;;;;12.70;7.33;;;16.30;99.90;;;;;;5075789;28;20653;-87
2021/06/07 08:55:13;;;;;;;8.67;7.37;;;16.40;99.90;;;;;;5075474;28;20623;-87
2021/06/07 08:57:41;;;;;;;7.53;6.30;;;16.60;99.90;;;;;;5074425;28;20621;-87
2021/06/07 09:00:10;;;;;;;8.50;7.50;;;16.40;99.90;;;;;;5074660;28;20637;-88
2021/06/07 09:02:39;;;;;;;9.00;7.20;;;16.50;99.90;;;;;;5075577;28;20616;-87
2021/06/07 09:05:06;;;;;;;7.57;6.30;;;16.50;99.90;;;;;;5074046;28;20656;-87
2021/06/07 09:07:50;;;;;;;7.30;6.03;;;16.60;99.90;;;;;;5066026;28;21220;-88
2021/06/07 09:10:16;;;;;;;9.23;6.50;;;16.70;99.90;;;;;;5073487;28;20616;-87
2021/06/07 09:12:44;;;;;;;8.10;7.30;;;16.60;99.90;;;;;;5068188;28;21048;-88
2021/06/07 09:15:27;;;;;;;9.40;7.37;;;16.60;99.90;;;;;;5064839;28;20620;-87
2021/06/07 09:17:54;;;;;;;8.90;7.20;;;16.60;99.90;;;;;;5059616;28;20628;-88
2021/06/07 09:20:22;;;;;;;8.80;7.37;;;16.70;99.90;;;;;;5074297;28;21271;-88
2021/06/07 09:22:52;;;;;;;8.67;6.80;;;16.70;99.90;;;;;;5061961;28;20693;-87
2021/06/07 09:25:20;;;;;;;11.40;8.80;;;16.80;99.90;;;;;;5063375;28;20683;-88
2021/06/07 09:28:06;;;;;;;12.10;9.50;;;16.70;99.90;;;;;;5054625;28;21256;-87
2021/06/07 09:30:36;;;;;;;11.60;9.00;;;16.70;99.90;;;;;;5053606;28;20631;-89
2021/06/07 09:33:26;;;;;;;10.23;9.13;;;16.50;99.90;;;;;;5070161;28;21005;-88
2021/06/07 09:36:23;;;;;;;11.63;9.37;;;16.50;99.90;;;;;;5073166;28;20649;-89
2021/06/07 09:39:10;;;;;;;13.90;9.50;;;16.60;99.90;;;;;;5022373;28;21188;-89
2021/06/07 09:41:50;;;;;;;11.47;9.50;;;16.60;99.90;;;;;;5072439;28;20624;-90
2021/06/07 09:44:22;;;;;;;12.93;10.27;;;16.60;99.90;;;;;;5056767;28;20624;-88
2021/06/07 09:46:50;;;;;;;12.10;10.50;;;16.70;99.90;;;;;;5059290;28;20699;-89
2021/06/07 09:49:18;;;;;;;13.80;10.50;;;16.70;99.90;;;;;;5075652;28;20633;-89
2021/06/07 09:51:54;;;;;;;12.37;11.07;;;16.80;99.90;;;;;;5063776;28;20657;-89
2021/06/07 09:54:24;;;;;;;14.77;10.63;;;16.80;99.90;;;;;;5070822;28;20631;-88
2021/06/07 09:56:53;;;;;;;14.00;10.67;;;16.90;99.90;;;;;;5058515;28;21170;-88
2021/06/07 09:59:27;;;;;;;13.33;11.43;;;17.00;99.90;;;;;;5075115;28;20616;-88
2021/06/07 10:01:55;;;;;;;12.70;10.50;;;17.00;99.90;;;;;;5062058;28;21240;-88
2021/06/07 10:04:22;;;;;;;14.13;10.70;;;17.00;99.90;;;;;;5071104;28;20649;-88
2021/06/07 10:06:48;;;;;;;15.17;12.47;;;17.00;99.90;;;;;;5064240;28;20624;-88
2021/06/07 10:09:18;;;;;;;12.70;11.00;;;16.90;99.90;;;;;;5074085;28;20628;-88
2021/06/07 10:11:46;;;;;;;14.53;11.77;;;17.00;99.90;;;;;;5074400;28;20692;-88
2021/06/07 10:14:15;;;;;;;16.30;12.40;;;17.10;99.90;;;;;;5075076;28;20743;-88
2021/06/07 10:16:54;;;;;;;18.33;12.93;;;17.00;99.90;;;;;;5070766;28;20618;-87
2021/06/07 10:19:31;;;;;;;17.43;12.23;;;17.10;99.90;;;;;;5074063;28;20604;-87
2021/06/07 10:21:57;;;;;;;16.47;12.70;;;17.10;99.90;;;;;;5074634;28;21055;-88
2021/06/07 10:24:24;;;;;;;15.80;11.80;;;17.20;99.90;;;;;;5074693;28;20616;-88
2021/06/07 10:26:52;;;;;;;13.67;11.97;;;17.30;99.90;;;;;;5074158;28;21185;-88
2021/06/07 10:29:20;;;;;;;15.40;13.10;;;17.20;99.90;;;;;;5074616;28;21197;-87
2021/06/07 10:31:46;;;;;;;18.03;12.23;;;17.30;99.90;;;;;;5073820;28;20986;-87
2021/06/07 10:34:13;;;;;;;14.50;12.00;;;17.20;99.90;;;;;;5077826;28;20762;-88
2021/06/07 10:36:47;;;;;;;14.77;12.60;;;17.40;99.90;;;;;;5073158;28;20618;-87
2021/06/07 10:39:27;;;;;;;17.07;12.53;;;17.40;99.90;;;;;;5074655;28;20617;-88
2021/06/07 10:42:17;;;;;;;13.97;12.50;;;17.50;99.90;;;;;;5075673;28;21565;-88
2021/06/07 10:44:47;;;;;;;14.10;12.57;;;17.70;99.90;;;;;;5078187;28;20728;-88
2021/06/07 10:47:15;;;;;;;14.17;12.60;;;17.70;99.90;;;;;;5075988;28;21216;-89
2021/06/07 10:49:45;;;;;;;19.00;14.90;;;17.80;99.90;;;;;;5072847;28;20639;-88
2021/06/07 10:52:15;;;;;;;13.40;11.97;;;17.70;99.90;;;;;;5077666;28;20717;-88
2021/06/07 10:54:43;;;;;;;17.57;12.53;;;17.80;99.90;;;;;;5058045;28;20648;-89
2021/06/07 10:57:33;;;;;;;15.60;12.50;;;17.70;99.90;;;;;;5072991;28;20628;-89
2021/06/07 11:00:01;;;;;;;15.70;11.90;;;17.60;99.90;;;;;;5078570;28;20723;-88
2021/06/07 11:02:35;;;;;;;15.60;12.83;;;17.60;99.90;;;;;;5076996;28;20608;-88
2021/06/07 11:05:04;;;;;;;15.60;13.00;;;17.50;99.90;;;;;;5073251;28;21057;-88
2021/06/07 11:07:31;;;;;;;14.33;12.83;;;17.40;99.90;;;;;;5064226;28;21092;-88
2021/06/07 11:10:29;;;;;;;16.13;13.73;;;17.40;99.90;;;;;;5077774;28;20741;-88
2021/06/07 11:12:58;;;;;;;19.37;14.40;;;17.10;99.90;;;;;;5015123;28;20651;-87
2021/06/07 11:15:27;;;;;;;16.30;13.57;;;17.20;99.90;;;;;;5063288;28;20632;-88
2021/06/07 11:18:38;;;;;;;18.37;14.47;;;17.30;99.90;;;;;;5067346;28;20641;-89
2021/06/07 11:21:26;;;;;;;12.97;11.60;;;17.30;99.90;;;;;;5058383;28;20728;-87
2021/06/07 11:23:54;;;;;;;14.50;12.63;;;17.40;99.90;;;;;;5058407;28;20636;-88
2021/06/07 11:26:36;;;;;;;16.80;13.60;;;17.50;99.90;;;;;;5059883;28;20634;-88
2021/06/07 11:29:12;;;;;;;13.83;11.80;;;17.60;99.90;;;;;;5079078;28;20624;-88
2021/06/07 11:31:41;;;;;;;15.67;11.30;;;17.60;99.90;;;;;;5077920;28;20707;-88
2021/06/07 11:34:09;;;;;;;15.60;12.30;;;17.50;99.90;;;;;;5078256;28;20633;-87
2021/06/07 11:36:40;;;;;;;13.83;11.77;;;17.50;99.90;;;;;;5074973;28;20633;-89
2021/06/07 11:39:09;;;;;;;14.27;11.60;;;17.50;99.90;;;;;;5077892;28;20697;-88
2021/06/07 11:42:01;;;;;;;12.80;11.20;;;17.50;99.90;;;;;;5078267;28;20628;-88
2021/06/07 11:44:50;;;;;;;12.60;11.30;;;17.50;99.90;;;;;;5077197;28;20627;-87
2021/06/07 11:47:18;;;;;;;14.43;12.37;;;17.70;99.90;;;;;;5074946;28;20629;-88
2021/06/07 11:50:10;;;;;;;14.63;13.07;;;17.70;99.90;;;;;;5077610;28;20636;-87
2021/06/07 11:52:48;;;;;;;17.57;13.20;;;17.50;99.90;;;;;;5069335;28;20673;-87
2021/06/07 11:55:18;;;;;;;12.73;11.40;;;17.50;99.90;;;;;;5076537;28;21026;-87
2021/06/07 11:57:45;;;;;;;14.00;12.53;;;17.80;99.90;;;;;;5076410;28;21202;-87
2021/06/07 12:00:15;;;;;;;13.30;11.83;;;17.80;99.90;;;;;;5071738;28;21217;-87
2021/06/07 12:02:42;;;;;;;10.77;9.67;;;17.90;99.90;;;;;;5076297;28;20628;-87
2021/06/07 12:05:11;;;;;;;14.23;11.50;;;18.00;99.90;;;;;;5078749;28;20627;-89
2021/06/07 12:07:39;;;;;;;15.50;10.70;;;17.80;99.90;;;;;;5079186;28;20644;-89
2021/06/07 12:10:08;;;;;;;13.00;11.70;;;17.90;99.90;;;;;;5079147;28;20648;-88
2021/06/07 12:12:35;;;;;;;12.93;11.60;;;17.90;99.90;;;;;;5080231;28;20656;-89
2021/06/07 12:15:09;;;;;;;13.30;11.60;;;17.90;99.90;;;;;;5078022;28;21185;-90
2021/06/07 12:17:43;;;;;;;11.57;10.37;;;18.00;99.90;;;;;;5070403;28;20617;-87
2021/06/07 12:20:11;;;;;;;13.67;12.20;;;17.90;99.90;;;;;;5059137;28;20675;-88
2021/06/07 12:22:40;;;;;;;13.20;11.40;;;17.80;99.90;;;;;;5059788;28;20630;-88
2021/06/07 12:25:17;;;;;;;14.97;12.20;;;17.90;99.90;;;;;;5058884;28;20605;-88
2021/06/07 12:30:30;;;;;;;14.40;12.90;;;17.80;99.90;;;;;;5075489;28;20646;-87
2021/06/07 12:32:59;;;;;;;13.63;12.23;;;17.80;99.90;;;;;;5075565;28;20680;-88
2021/06/07 12:35:28;;;;;;;15.57;11.50;;;17.80;99.90;;;;;;5075821;28;20630;-88
2021/06/07 12:37:56;;;;;;;13.97;12.57;;;17.80;99.90;;;;;;5061710;28;21217;-87
2021/06/07 12:40:31;;;;;;;14.00;12.50;;;17.80;99.90;;;;;;5056070;28;20737;-88